Time;durP1;ratioP1;P1;durP2;ratioP2;P2;SDS_P1;SDS_P2;PMS_P1;PMS_P2;Temp;Humidity;BMP_temperature;BMP_pressure;BME280_temperature;BME280_humidity;BME280_pressure;Samples;Min_cycle;Max_cycle;Signal;HPM_P1;HPM_P2
2023/09/29 00:00:31;;;;;;;10.35;5.60;;;;;;;18.48;77.88;100153.69;5013305;28;20089;-72
2023/09/29 00:02:57;;;;;;;17.48;5.85;;;;;;;18.44;77.94;100147.00;5015105;28;20471;-72
2023/09/29 00:05:23;;;;;;;10.40;5.57;;;;;;;18.43;78.19;100162.31;5000826;28;20064;-72
2023/09/29 00:07:52;;;;;;;12.57;5.85;;;;;;;18.45;78.42;100154.88;4999879;28;20050;-72
2023/09/29 00:10:20;;;;;;;15.95;6.00;;;;;;;18.47;78.35;100151.19;5000175;28;20060;-72
2023/09/29 00:12:51;;;;;;;11.98;5.90;;;;;;;18.49;78.71;100155.31;5032371;28;20102;-72
2023/09/29 00:15:18;;;;;;;10.60;5.85;;;;;;;18.43;78.57;100154.22;5015893;28;20152;-72
2023/09/29 00:17:45;;;;;;;9.30;5.88;;;;;;;18.92;76.66;100156.84;4999631;28;20057;-72
2023/09/29 00:20:24;;;;;;;10.60;5.45;;;;;;;19.03;75.42;100158.97;4999599;28;20512;-72
2023/09/29 00:22:52;;;;;;;15.07;5.60;;;;;;;19.04;74.79;100157.94;5017577;28;20368;-72
2023/09/29 00:25:19;;;;;;;9.77;5.18;;;;;;;19.06;74.83;100163.97;5016021;28;20526;-73
2023/09/29 00:27:48;;;;;;;10.90;5.10;;;;;;;19.01;75.23;100160.19;5032784;28;20392;-72
2023/09/29 00:30:14;;;;;;;9.13;5.10;;;;;;;18.95;74.88;100164.53;5015839;28;20455;-72
2023/09/29 00:32:50;;;;;;;10.65;5.75;;;;;;;19.04;75.30;100163.31;5032422;28;20081;-71
2023/09/29 00:35:38;;;;;;;10.52;5.60;;;;;;;19.02;74.82;100170.75;5032260;28;20073;-72
2023/09/29 00:38:03;;;;;;;9.25;5.53;;;;;;;18.95;75.37;100164.53;5015399;28;20458;-72
2023/09/29 00:40:30;;;;;;;11.65;5.38;;;;;;;18.93;75.22;100166.56;5033752;28;20163;-72
2023/09/29 00:43:01;;;;;;;14.43;5.68;;;;;;;18.92;75.02;100169.47;5035832;28;20081;-71
2023/09/29 00:45:28;;;;;;;11.17;5.97;;;;;;;18.93;75.86;100168.47;5004642;28;20052;-72
2023/09/29 00:47:57;;;;;;;10.35;5.93;;;;;;;18.97;75.60;100169.72;5036378;28;20368;-72
2023/09/29 00:50:28;;;;;;;14.98;5.60;;;;;;;19.00;75.35;100167.47;5020341;28;20052;-72
2023/09/29 00:52:59;;;;;;;11.93;5.22;;;;;;;19.06;75.45;100168.50;5036416;28;20056;-72
2023/09/29 00:55:28;;;;;;;8.88;5.65;;;;;;;19.03;75.23;100167.06;5036609;28;20045;-72
2023/09/29 00:57:58;;;;;;;9.30;5.15;;;;;;;19.07;75.25;100160.22;5019786;28;20041;-73
2023/09/29 01:02:53;;;;;;;13.57;5.78;;;;;;;18.98;74.92;100163.28;5036097;28;19939;-70
2023/09/29 01:05:20;;;;;;;9.90;5.40;;;;;;;18.95;75.20;100164.53;5036168;28;20059;-70
2023/09/29 01:07:46;;;;;;;8.50;5.55;;;;;;;18.90;75.25;100158.91;5036029;28;20139;-72
2023/09/29 01:10:13;;;;;;;12.48;5.90;;;;;;;18.92;75.52;100170.31;5052249;28;20040;-72
2023/09/29 01:12:40;;;;;;;13.25;5.70;;;;;;;18.97;75.81;100173.25;5019849;28;20454;-71
2023/09/29 01:15:15;;;;;;;14.20;5.30;;;;;;;18.94;75.82;100165.56;5035103;28;20041;-72
2023/09/29 01:17:42;;;;;;;10.93;5.75;;;;;;;18.51;77.13;100164.03;5035558;28;20434;-70
2023/09/29 01:20:16;;;;;;;12.10;5.65;;;;;;;18.38;78.52;100163.94;5035614;28;20378;-72
2023/09/29 01:22:48;;;;;;;8.95;5.38;;;;;;;18.39;79.17;100168.28;5051997;28;20136;-71
2023/09/29 01:25:15;;;;;;;9.65;5.68;;;;;;;18.31;79.55;100163.84;5019223;28;20053;-73
2023/09/29 01:27:41;;;;;;;12.13;6.03;;;;;;;18.21;79.86;100159.81;5035458;28;20045;-73
2023/09/29 01:30:09;;;;;;;11.25;5.57;;;;;;;18.26;80.18;100157.41;5035602;28;20096;-73
2023/09/29 01:32:37;;;;;;;14.15;6.45;;;;;;;18.23;79.95;100163.16;5018246;28;20131;-73
2023/09/29 01:35:04;;;;;;;10.90;6.05;;;;;;;18.26;80.09;100165.47;5018281;28;20036;-73
2023/09/29 01:38:00;;;;;;;8.32;5.47;;;;;;;18.25;80.21;100164.63;5051109;28;20052;-73
2023/09/29 01:40:27;;;;;;;11.05;5.10;;;;;;;18.22;80.33;100169.56;5035011;28;20040;-73
2023/09/29 01:42:56;;;;;;;9.52;6.15;;;;;;;18.19;80.25;100167.25;5018782;28;20997;-72
2023/09/29 01:45:24;;;;;;;11.60;5.60;;;;;;;18.19;80.76;100168.09;5035598;28;20055;-72
2023/09/29 01:47:51;;;;;;;11.10;5.40;;;;;;;18.14;80.34;100167.00;5035415;28;20106;-72
2023/09/29 01:50:21;;;;;;;9.10;5.85;;;;;;;18.28;80.33;100166.09;5051615;28;20056;-73
2023/09/29 01:52:49;;;;;;;10.32;5.50;;;;;;;18.18;80.57;100154.84;5002961;28;20136;-71
2023/09/29 01:55:16;;;;;;;12.40;5.93;;;;;;;18.19;80.49;100161.88;5035124;28;20045;-71
2023/09/29 01:57:43;;;;;;;9.90;5.32;;;;;;;18.19;80.31;100159.19;5051386;28;20045;-71
2023/09/29 02:00:20;;;;;;;10.63;5.47;;;;;;;18.22;80.50;100166.88;5052502;28;20080;-71
2023/09/29 02:02:51;;;;;;;13.80;5.75;;;;;;;18.26;80.30;100174.38;5036265;28;20136;-70
2023/09/29 02:05:17;;;;;;;10.88;5.80;;;;;;;18.19;80.66;100169.94;5051272;28;20056;-70
2023/09/29 02:07:45;;;;;;;16.33;5.80;;;;;;;18.13;80.36;100171.56;5018115;28;20052;-70
2023/09/29 02:10:11;;;;;;;10.93;5.82;;;;;;;18.15;80.74;100166.81;5051195;28;20496;-71
2023/09/29 02:12:47;;;;;;;11.35;5.90;;;;;;;18.20;80.88;100158.16;5034773;28;20044;-70
2023/09/29 02:15:18;;;;;;;10.75;5.72;;;;;;;18.19;81.14;100167.25;5017568;28;20373;-72
2023/09/29 02:17:48;;;;;;;13.02;7.10;;;;;;;18.14;80.91;100167.00;5033529;28;20048;-71
2023/09/29 02:20:18;;;;;;;11.38;6.07;;;;;;;18.10;80.66;100163.88;5033835;28;20052;-71
2023/09/29 02:22:45;;;;;;;16.85;6.22;;;;;;;18.10;80.62;100161.19;5033346;28;20053;-71
2023/09/29 02:25:16;;;;;;;9.50;5.97;;;;;;;18.08;80.53;100159.72;5049755;28;20489;-71
2023/09/29 02:27:43;;;;;;;14.15;6.68;;;;;;;18.06;80.41;100168.00;5033394;28;20040;-71
2023/09/29 02:30:10;;;;;;;13.52;7.50;;;;;;;18.08;81.46;100167.78;5016556;28;20052;-71
2023/09/29 02:32:38;;;;;;;14.82;7.07;;;;;;;18.08;81.31;100170.47;5017161;28;20049;-71
2023/09/29 02:35:06;;;;;;;11.55;7.00;;;;;;;17.92;81.53;100165.34;5017648;28;20395;-71
2023/09/29 02:37:33;;;;;;;13.57;7.35;;;;;;;17.95;81.92;100170.34;5017335;28;20444;-72
2023/09/29 02:40:02;;;;;;;11.93;6.93;;;;;;;17.93;81.90;100173.22;5033072;28;20458;-70
2023/09/29 02:42:29;;;;;;;14.10;7.28;;;;;;;17.92;81.90;100170.72;5017164;28;20067;-71
2023/09/29 02:44:55;;;;;;;11.63;7.15;;;;;;;17.86;82.55;100179.56;5049648;28;20135;-70
2023/09/29 02:47:21;;;;;;;13.00;7.25;;;;;;;17.86;82.58;100169.66;5033810;28;20053;-71
2023/09/29 02:49:48;;;;;;;14.13;7.53;;;;;;;17.81;82.65;100169.38;5018437;28;20052;-71
2023/09/29 02:52:14;;;;;;;13.38;7.32;;;;;;;17.77;83.05;100178.03;5034695;28;20098;-70
2023/09/29 02:54:41;;;;;;;12.65;6.60;;;;;;;17.73;83.12;100177.56;5034340;28;20053;-71
2023/09/29 02:57:07;;;;;;;14.38;6.53;;;;;;;17.48;84.27;100173.56;5034298;28;20116;-71
2023/09/29 02:59:37;;;;;;;9.27;6.43;;;;;;;17.37;85.62;100183.94;5050675;28;20049;-72
2023/09/29 03:02:05;;;;;;;15.63;6.50;;;;;;;17.47;85.80;100176.44;5034413;28;20118;-71
2023/09/29 03:04:31;;;;;;;11.70;6.70;;;;;;;17.40;85.49;100176.34;5050528;28;20048;-71
2023/09/29 03:06:57;;;;;;;15.88;7.30;;;;;;;17.36;85.84;100172.34;5050436;28;20106;-69
2023/09/29 03:09:23;;;;;;;11.80;6.90;;;;;;;17.35;86.37;100162.63;5017239;28;20113;-70
2023/09/29 03:11:49;;;;;;;12.45;6.90;;;;;;;17.33;86.76;100167.34;5050257;28;20053;-70
2023/09/29 03:14:16;;;;;;;11.50;7.18;;;;;;;17.40;86.35;100167.44;5017736;28;20068;-70
2023/09/29 03:16:43;;;;;;;13.73;7.07;;;;;;;17.48;86.10;100164.69;5033999;28;20049;-70
2023/09/29 03:19:09;;;;;;;15.75;7.07;;;;;;;17.42;86.04;100168.91;5033771;28;20045;-71
2023/09/29 03:21:35;;;;;;;15.85;6.97;;;;;;;17.32;86.68;100168.38;5034066;28;20048;-71
2023/09/29 03:24:02;;;;;;;11.43;6.80;;;;;;;17.38;86.46;100169.47;5017471;28;20065;-73
2023/09/29 03:26:31;;;;;;;12.57;6.97;;;;;;;17.38;86.71;100167.63;5019169;28;20441;-68
2023/09/29 03:28:59;;;;;;;16.25;7.38;;;;;;;17.37;87.12;100167.81;5034030;28;20433;-68
2023/09/29 03:31:26;;;;;;;10.63;6.63;;;;;;;17.35;86.94;100173.38;5017147;28;20489;-68
2023/09/29 03:33:52;;;;;;;11.45;6.85;;;;;;;17.35;87.08;100172.53;5017486;28;20364;-68
2023/09/29 03:36:22;;;;;;;15.02;7.03;;;;;;;17.35;87.37;100173.38;5017744;28;20052;-68
2023/09/29 03:38:49;;;;;;;13.30;7.00;;;;;;;17.36;87.24;100171.53;5043627;28;20451;-69
2023/09/29 03:41:15;;;;;;;15.27;6.85;;;;;;;17.34;87.27;100171.72;5044369;28;20135;-70
2023/09/29 03:43:41;;;;;;;16.70;6.95;;;;;;;17.31;87.35;100168.59;5027474;28;20135;-69
2023/09/29 03:46:20;;;;;;;14.98;7.15;;;;;;;17.45;87.70;100163.19;5043194;28;20037;-71
2023/09/29 03:48:47;;;;;;;16.92;7.10;;;;;;;17.34;87.71;100176.25;5030277;28;20037;-76
2023/09/29 03:51:23;;;;;;;12.13;7.05;;;;;;;17.44;87.74;100169.59;5054064;28;20124;-70
2023/09/29 03:53:50;;;;;;;11.75;6.70;;;;;;;17.27;88.01;100168.13;5037410;28;20107;-69
2023/09/29 03:56:16;;;;;;;15.10;6.40;;;;;;;17.47;87.19;100168.38;5037396;28;20052;-68
2023/09/29 03:58:43;;;;;;;14.27;7.07;;;;;;;17.72;86.61;100169.69;5053577;28;20451;-69
2023/09/29 04:01:09;;;;;;;13.65;6.40;;;;;;;17.92;85.59;100174.25;5003830;28;20144;-70
2023/09/29 04:03:35;;;;;;;16.52;6.50;;;;;;;18.14;84.11;100169.72;5037447;28;20127;-71
2023/09/29 04:06:02;;;;;;;20.58;6.72;;;;;;;18.52;83.31;100167.53;5020908;28;20060;-69
2023/09/29 04:08:29;;;;;;;11.30;6.72;;;;;;;18.80;80.96;100174.59;5035904;28;20072;-68
2023/09/29 04:10:55;;;;;;;17.00;6.95;;;;;;;19.12;78.26;100173.09;5051300;28;20163;-68
2023/09/29 04:13:22;;;;;;;15.55;7.13;;;;;;;19.15;77.47;100175.38;5035749;28;20041;-68
2023/09/29 04:15:47;;;;;;;14.05;6.95;;;;;;;18.95;77.77;100172.59;5053040;28;20044;-68
2023/09/29 04:18:13;;;;;;;12.55;6.45;;;;;;;18.79;78.29;100170.22;5053527;28;20424;-69
2023/09/29 04:20:39;;;;;;;15.70;6.95;;;;;;;18.66;78.71;100162.06;5053405;28;20038;-68
2023/09/29 04:23:07;;;;;;;10.57;6.20;;;;;;;18.62;79.96;100170.75;5053339;28;20093;-68
2023/09/29 04:25:33;;;;;;;11.95;7.05;;;;;;;18.48;79.90;100173.31;5036961;28;20121;-68
2023/09/29 04:28:01;;;;;;;11.57;6.72;;;;;;;18.45;80.26;100167.53;5020940;28;20049;-68
2023/09/29 04:30:27;;;;;;;16.88;7.68;;;;;;;18.37;80.96;100159.56;5053426;28;20089;-69
2023/09/29 04:32:53;;;;;;;16.30;8.05;;;;;;;18.38;80.82;100170.16;5037239;28;20773;-68
2023/09/29 04:35:19;;;;;;;13.05;7.25;;;;;;;18.41;80.78;100166.22;5036694;28;20104;-68
2023/09/29 04:37:47;;;;;;;14.40;8.43;;;;;;;18.41;80.80;100171.59;5053807;28;20044;-68
2023/09/29 04:40:16;;;;;;;14.90;7.25;;;;;;;18.44;80.78;100163.16;5054708;28;20059;-68
2023/09/29 04:42:41;;;;;;;14.80;7.43;;;;;;;18.41;80.33;100164.38;5054190;28;20387;-68
2023/09/29 04:45:08;;;;;;;13.85;7.32;;;;;;;18.30;81.12;100170.25;5037238;28;20601;-68
2023/09/29 04:47:34;;;;;;;17.55;7.47;;;;;;;18.30;81.00;100170.25;5053673;28;20045;-69
2023/09/29 04:50:00;;;;;;;17.42;8.02;;;;;;;18.30;80.85;100169.41;5018727;28;20399;-68
2023/09/29 04:52:27;;;;;;;12.77;6.90;;;;;;;18.32;81.29;100162.00;5036512;28;20040;-68
2023/09/29 04:54:54;;;;;;;13.30;6.93;;;;;;;18.44;80.92;100155.91;5036607;28;20547;-68
2023/09/29 04:57:21;;;;;;;11.32;6.55;;;;;;;18.50;80.63;100162.34;4998966;28;20041;-68
2023/09/29 04:59:48;;;;;;;18.70;8.07;;;;;;;18.53;80.41;100161.16;4982917;28;20053;-67
2023/09/29 05:02:17;;;;;;;20.35;8.32;;;;;;;18.52;80.08;100165.69;5015851;28;20084;-69
2023/09/29 05:04:43;;;;;;;15.98;7.57;;;;;;;18.73;79.34;100160.25;4983357;28;20140;-68
2023/09/29 05:07:12;;;;;;;11.23;6.38;;;;;;;18.87;79.09;100161.97;4965259;28;20081;-68
2023/09/29 05:09:39;;;;;;;13.40;7.10;;;;;;;18.86;78.27;100170.25;5013022;28;20159;-68
2023/09/29 05:12:05;;;;;;;13.35;6.68;;;;;;;18.92;78.40;100169.47;5014461;28;20436;-68
2023/09/29 05:14:33;;;;;;;12.00;6.43;;;;;;;19.05;78.13;100167.66;5029216;28;20041;-68
2023/09/29 05:16:59;;;;;;;16.98;6.45;;;;;;;19.01;77.76;100169.09;5013795;28;20046;-68
2023/09/29 05:19:27;;;;;;;14.88;7.05;;;;;;;19.16;77.57;100159.03;5015332;28;20057;-68
2023/09/29 05:21:53;;;;;;;15.98;6.75;;;;;;;19.12;77.38;100157.78;4982713;28;20080;-68
2023/09/29 05:24:20;;;;;;;10.32;6.50;;;;;;;19.15;77.15;100157.38;4982635;28;20197;-68
2023/09/29 05:26:47;;;;;;;12.15;6.78;;;;;;;19.18;77.15;100154.28;4982835;28;20048;-68
2023/09/29 05:29:13;;;;;;;11.75;6.07;;;;;;;19.23;77.01;100165.28;5052481;28;20064;-68
2023/09/29 05:31:39;;;;;;;12.38;6.82;;;;;;;19.29;77.23;100167.22;5005564;28;20432;-68
2023/09/29 05:34:05;;;;;;;13.40;6.90;;;;;;;19.31;76.67;100164.31;5054510;28;20040;-68
2023/09/29 05:36:31;;;;;;;15.25;7.03;;;;;;;19.39;76.94;100167.66;5054624;28;20051;-68
2023/09/29 05:38:56;;;;;;;12.52;7.20;;;;;;;19.38;77.25;100170.53;5037819;28;20275;-68
2023/09/29 05:41:23;;;;;;;16.92;7.38;;;;;;;19.46;76.93;100170.38;5038087;28;20390;-68
2023/09/29 05:43:49;;;;;;;15.55;7.32;;;;;;;19.46;76.84;100170.38;5037867;28;20045;-68
2023/09/29 05:46:15;;;;;;;16.92;7.50;;;;;;;19.58;76.81;100177.69;5054715;28;20048;-68
2023/09/29 05:48:41;;;;;;;17.55;7.85;;;;;;;19.73;76.66;100174.78;5037545;28;20077;-68
2023/09/29 05:51:07;;;;;;;16.08;7.75;;;;;;;19.86;75.94;100172.16;5037455;28;20438;-68
2023/09/29 05:53:33;;;;;;;18.00;8.15;;;;;;;19.97;75.47;100166.97;5034765;28;20147;-68
2023/09/29 05:56:06;;;;;;;24.45;8.32;;;;;;;20.17;75.16;100167.03;5051512;28;20525;-68
2023/09/29 05:58:32;;;;;;;14.00;7.97;;;;;;;20.12;74.96;100164.09;5035197;28;20052;-68
2023/09/29 06:01:07;;;;;;;26.10;9.10;;;;;;;20.20;75.22;100157.69;5034682;28;20051;-68
2023/09/29 06:03:33;;;;;;;15.98;8.48;;;;;;;20.15;75.30;100157.47;5018663;28;20052;-68
2023/09/29 06:05:59;;;;;;;18.63;7.90;;;;;;;20.20;74.83;100160.38;5018637;28;20041;-68
2023/09/29 06:08:24;;;;;;;17.33;8.88;;;;;;;20.43;75.05;100164.34;5035082;28;20056;-68
2023/09/29 06:10:51;;;;;;;20.65;8.35;;;;;;;20.57;73.71;100162.44;5051513;28;20044;-68
2023/09/29 06:13:17;;;;;;;13.50;7.55;;;;;;;20.82;73.68;100168.84;5051804;28;20099;-68
2023/09/29 06:15:43;;;;;;;27.45;7.80;;;;;;;21.02;72.57;100172.38;5034669;28;20464;-68
2023/09/29 06:18:09;;;;;;;28.08;8.45;;;;;;;21.26;71.95;100179.75;5034924;28;20052;-69
2023/09/29 06:20:35;;;;;;;16.90;7.45;;;;;;;21.52;70.68;100177.78;5018408;28;20051;-68
2023/09/29 06:23:01;;;;;;;19.70;8.00;;;;;;;21.80;69.64;100173.91;5034588;28;20430;-69
2023/09/29 06:25:26;;;;;;;14.93;7.80;;;;;;;22.07;68.42;100169.97;5034971;28;20049;-68
2023/09/29 06:27:54;;;;;;;10.98;7.05;;;;;;;22.29;66.99;100176.69;5052300;28;20075;-68
2023/09/29 06:30:20;;;;;;;21.13;7.53;;;;;;;22.54;65.93;100182.97;5018435;28;20056;-68
2023/09/29 06:32:46;;;;;;;17.00;7.40;;;;;;;22.77;65.22;100173.13;5018639;28;20475;-68
2023/09/29 06:35:12;;;;;;;21.60;7.95;;;;;;;23.01;64.11;100182.28;5034712;28;20055;-70
2023/09/29 06:37:38;;;;;;;23.38;9.55;;;;;;;23.28;62.91;100176.34;5034675;28;20136;-68
2023/09/29 06:40:06;;;;;;;18.30;7.75;;;;;;;23.55;62.12;100184.16;5052068;28;20406;-69
2023/09/29 06:42:35;;;;;;;22.23;7.53;;;;;;;23.87;60.58;100172.03;5034417;28;20072;-68
2023/09/29 06:45:02;;;;;;;22.42;7.07;;;;;;;24.01;59.70;100174.34;5034807;28;20132;-69
2023/09/29 06:47:29;;;;;;;16.98;7.35;;;;;;;24.17;58.86;100181.00;5018756;28;20114;-68
2023/09/29 06:49:55;;;;;;;22.38;7.20;;;;;;;24.28;58.06;100172.88;5016881;28;20045;-68
2023/09/29 06:52:21;;;;;;;15.32;7.80;;;;;;;24.46;57.43;100178.19;5001669;28;20110;-69
2023/09/29 06:54:47;;;;;;;11.18;6.78;;;;;;;24.75;56.22;100174.59;5001743;28;20409;-69
2023/09/29 06:57:13;;;;;;;17.73;7.50;;;;;;;24.98;55.33;100170.19;5017953;28;20029;-69
2023/09/29 06:59:38;;;;;;;24.02;8.45;;;;;;;25.20;54.31;100177.47;5034376;28;20088;-68
2023/09/29 07:02:05;;;;;;;18.42;7.85;;;;;;;25.39;53.99;100168.13;5001682;28;20048;-71
2023/09/29 07:04:32;;;;;;;14.20;6.65;;;;;;;25.67;52.80;100170.03;5018058;28;20033;-68
2023/09/29 07:06:58;;;;;;;22.13;6.95;;;;;;;26.05;51.10;100175.69;5018213;28;20041;-69
2023/09/29 07:09:29;;;;;;;17.05;6.75;;;;;;;26.69;49.76;100171.63;5017731;28;20094;-69
2023/09/29 07:11:58;;;;;;;16.67;6.60;;;;;;;27.94;46.96;100173.25;5018106;28;20057;-69
2023/09/29 07:14:25;;;;;;;16.75;5.75;;;;;;;30.47;40.99;100172.44;5016568;28;20060;-69
2023/09/29 07:16:54;;;;;;;14.95;6.20;;;;;;;33.17;34.69;100174.84;5017166;28;20080;-69
2023/09/29 07:19:20;;;;;;;11.93;5.90;;;;;;;35.56;29.46;100168.47;5016965;28;20156;-70
2023/09/29 07:21:46;;;;;;;13.68;5.32;;;;;;;37.55;25.51;100160.06;4977479;28;20502;-69
2023/09/29 07:24:11;;;;;;;13.13;5.57;;;;;;;39.17;22.76;100166.31;4977437;28;20061;-69
2023/09/29 07:26:38;;;;;;;17.08;5.28;;;;;;;40.50;20.68;100161.63;4993798;28;20115;-69
2023/09/29 07:29:04;;;;;;;12.20;5.25;;;;;;;41.64;19.31;100158.44;4977442;28;20445;-70
2023/09/29 07:31:38;;;;;;;11.90;4.80;;;;;;;42.76;17.68;100151.78;4977405;28;20049;-70
2023/09/29 07:34:04;;;;;;;9.93;4.70;;;;;;;43.72;16.57;100159.38;4977346;28;20049;-70
2023/09/29 07:36:33;;;;;;;17.38;4.65;;;;;;;44.65;15.29;100164.59;4961310;28;20061;-70
2023/09/29 07:38:59;;;;;;;14.23;4.70;;;;;;;45.11;14.83;100159.81;4977659;28;20046;-70
2023/09/29 07:41:26;;;;;;;13.20;4.40;;;;;;;45.87;13.98;100155.81;4977257;28;20096;-70
2023/09/29 07:43:52;;;;;;;10.93;4.75;;;;;;;46.37;13.46;100149.63;4977523;28;20061;-70
2023/09/29 07:46:18;;;;;;;11.77;4.57;;;;;;;46.52;13.39;100157.03;4980371;28;20603;-70
2023/09/29 07:48:44;;;;;;;13.27;4.60;;;;;;;46.63;12.96;100149.53;4964719;28;20487;-70
2023/09/29 07:51:10;;;;;;;16.42;4.80;;;;;;;47.16;12.91;100150.84;4980867;28;20103;-70
2023/09/29 07:53:36;;;;;;;16.70;4.78;;;;;;;47.73;12.31;100149.25;5012153;28;20045;-70
2023/09/29 07:56:02;;;;;;;11.20;4.53;;;;;;;48.09;11.95;100150.22;5001204;28;20051;-71
2023/09/29 07:58:29;;;;;;;9.27;4.10;;;;;;;48.17;12.00;100146.25;5017294;28;20061;-70
2023/09/29 08:00:55;;;;;;;12.90;4.18;;;;;;;48.44;11.29;100142.72;5033994;28;20483;-71
2023/09/29 08:03:21;;;;;;;15.00;4.60;;;;;;;48.31;10.90;100138.69;5017623;28;20056;-71
2023/09/29 08:05:46;;;;;;;14.85;3.97;;;;;;;47.47;11.60;100141.81;5033617;28;20036;-71
2023/09/29 08:08:12;;;;;;;10.80;3.33;;;;;;;46.85;12.17;100136.47;5000745;28;20045;-71
2023/09/29 08:10:38;;;;;;;10.48;3.38;;;;;;;47.39;11.99;100128.94;5033659;28;20138;-71
2023/09/29 08:13:04;;;;;;;12.95;3.70;;;;;;;47.15;12.00;100135.16;5050191;28;20087;-71
2023/09/29 08:15:30;;;;;;;11.75;3.67;;;;;;;47.30;12.16;100141.72;5050109;28;20502;-71
2023/09/29 08:17:56;;;;;;;12.00;3.80;;;;;;;47.55;11.85;100134.22;5000815;28;20037;-71
2023/09/29 08:20:22;;;;;;;8.43;3.50;;;;;;;48.07;11.12;100135.75;5000791;28;20047;-71
2023/09/29 08:22:48;;;;;;;23.88;3.88;;;;;;;47.96;11.17;100134.91;5000847;28;20044;-71
2023/09/29 08:25:14;;;;;;;21.73;4.40;;;;;;;48.20;11.56;100135.00;5020025;28;20060;-71
2023/09/29 08:27:42;;;;;;;10.80;4.20;;;;;;;48.75;11.13;100135.53;5037213;28;20064;-71
2023/09/29 08:30:09;;;;;;;11.13;3.90;;;;;;;48.83;10.95;100131.53;5003983;28;20143;-72
2023/09/29 08:32:37;;;;;;;13.13;3.70;;;;;;;48.86;10.88;100128.72;5004599;28;20106;-72
2023/09/29 08:35:03;;;;;;;18.30;11.88;;;;;;;49.56;10.30;100121.41;5020254;28;20118;-71
2023/09/29 08:37:30;;;;;;;8.85;4.63;;;;;;;49.93;10.20;100116.84;5004085;28;20123;-71
2023/09/29 08:39:56;;;;;;;7.80;3.70;;;;;;;50.01;10.10;100114.84;5020395;28;20071;-71
2023/09/29 08:42:37;;;;;;;9.57;4.53;;;;;;;48.76;10.64;100114.59;5004262;28;20048;-71
2023/09/29 08:45:09;;;;;;;12.25;4.82;;;;;;;49.00;10.47;100111.81;5036732;28;20475;-71
2023/09/29 08:47:36;;;;;;;9.73;4.43;;;;;;;49.45;10.05;100106.50;5053027;28;20040;-71
2023/09/29 08:50:05;;;;;;;15.82;3.88;;;;;;;50.11;9.72;100111.16;5036356;28;20060;-71
2023/09/29 08:52:32;;;;;;;8.90;4.13;;;;;;;49.16;10.04;100108.56;5020393;28;20047;-72
2023/09/29 08:54:59;;;;;;;11.90;3.65;;;;;;;49.45;10.37;100104.50;5003769;28;20049;-71
2023/09/29 08:57:26;;;;;;;11.60;3.90;;;;;;;49.44;10.52;100102.09;5003627;28;20092;-71
2023/09/29 08:59:53;;;;;;;12.23;4.25;;;;;;;49.18;10.58;100096.88;5019674;28;20053;-72
2023/09/29 09:02:20;;;;;;;10.07;4.00;;;;;;;49.27;10.29;100086.78;5019764;28;20048;-71
2023/09/29 09:04:47;;;;;;;15.38;4.50;;;;;;;49.46;10.43;100091.97;5003429;28;20143;-71
2023/09/29 09:07:14;;;;;;;9.75;4.15;;;;;;;49.70;10.06;100099.59;5019692;28;20475;-71
2023/09/29 09:09:54;;;;;;;13.73;3.95;;;;;;;49.57;9.84;100080.66;5036079;28;20114;-70
2023/09/29 09:12:34;;;;;;;9.80;3.42;;;;;;;49.45;10.20;100075.44;5036141;28;20041;-71
2023/09/29 09:15:03;;;;;;;10.60;3.63;;;;;;;49.73;9.96;100076.19;5052405;28;20055;-70
2023/09/29 09:17:34;;;;;;;9.63;3.45;;;;;;;49.74;10.04;100072.16;5036790;28;20052;-70
2023/09/29 09:20:01;;;;;;;12.02;3.20;;;;;;;49.40;9.67;100067.38;5035933;28;20048;-71
2023/09/29 09:22:34;;;;;;;19.52;3.20;;;;;;;49.32;9.64;100071.47;5020994;28;20395;-70
2023/09/29 09:25:01;;;;;;;8.13;3.45;;;;;;;49.37;9.78;100071.84;5019407;28;20435;-70
2023/09/29 09:27:38;;;;;;;11.38;3.60;;;;;;;49.52;10.13;100070.59;5020121;28;20052;-71
2023/09/29 09:30:06;;;;;;;8.73;3.47;;;;;;;49.71;9.42;100060.84;5035749;28;20386;-72
2023/09/29 09:32:32;;;;;;;10.43;3.20;;;;;;;49.96;9.49;100058.72;5052029;28;20379;-70
2023/09/29 09:34:58;;;;;;;9.02;3.45;;;;;;;49.95;9.47;100063.56;5002558;28;20056;-71
2023/09/29 09:37:26;;;;;;;11.93;3.78;;;;;;;49.80;9.39;100067.66;5019058;28;20040;-71
2023/09/29 09:39:54;;;;;;;9.57;2.95;;;;;;;49.43;9.57;100060.94;5019161;28;20056;-71
2023/09/29 09:42:24;;;;;;;11.87;3.37;;;;;;;49.37;9.33;100059.75;5002855;28;20503;-71
2023/09/29 09:44:50;;;;;;;11.68;2.97;;;;;;;49.25;9.59;100052.50;5002771;28;20711;-70
2023/09/29 09:47:16;;;;;;;12.13;3.38;;;;;;;49.42;9.12;100057.31;5019055;28;20114;-71
2023/09/29 09:49:46;;;;;;;6.53;3.28;;;;;;;49.16;9.37;100045.66;5035426;28;20406;-71
2023/09/29 09:52:29;;;;;;;11.98;3.67;;;;;;;49.20;9.79;100038.78;5035796;28;20114;-71
2023/09/29 09:54:58;;;;;;;13.40;3.10;;;;;;;47.99;9.96;100038.31;5051840;28;20144;-71
2023/09/29 09:57:34;;;;;;;12.23;3.30;;;;;;;47.53;10.64;100040.91;5002825;28;20041;-70
2023/09/29 10:00:10;;;;;;;8.93;3.25;;;;;;;47.71;10.07;100038.19;5018892;28;20060;-71
2023/09/29 10:02:49;;;;;;;10.57;3.38;;;;;;;47.47;10.46;100040.47;5052039;28;20049;-70
2023/09/29 10:05:22;;;;;;;10.07;3.28;;;;;;;46.83;10.79;100035.63;5018811;28;20382;-70
2023/09/29 10:07:55;;;;;;;8.82;3.25;;;;;;;46.24;10.94;100033.09;5002864;28;20455;-70
2023/09/29 10:10:33;;;;;;;15.80;3.40;;;;;;;47.01;10.75;100028.13;5019870;28;20053;-70
2023/09/29 10:13:02;;;;;;;12.20;3.20;;;;;;;47.86;9.95;100028.56;5035486;28;20048;-70
2023/09/29 10:15:29;;;;;;;15.50;3.67;;;;;;;47.90;9.67;100024.59;5019087;28;20048;-70
2023/09/29 10:17:58;;;;;;;8.50;3.38;;;;;;;48.83;9.52;100027.13;5051247;28;20130;-70
2023/09/29 10:20:26;;;;;;;8.48;3.20;;;;;;;49.08;9.17;100031.56;5018249;28;20045;-70
2023/09/29 10:23:06;;;;;;;14.77;3.75;;;;;;;49.02;8.85;100021.09;4997447;28;20483;-70
2023/09/29 10:25:36;;;;;;;8.32;3.40;;;;;;;48.72;9.07;100024.34;4981538;28;20080;-70
2023/09/29 10:28:07;;;;;;;10.18;3.33;;;;;;;48.42;9.20;100026.75;4997804;28;20141;-70
2023/09/29 10:30:34;;;;;;;11.77;3.40;;;;;;;48.47;9.07;100015.03;5014656;28;20045;-70
2023/09/29 10:33:05;;;;;;;8.98;2.95;;;;;;;48.90;9.33;100018.69;4981623;28;20033;-70
2023/09/29 10:35:33;;;;;;;7.47;2.92;;;;;;;49.27;8.87;100016.19;4997869;28;20057;-70
2023/09/29 10:38:06;;;;;;;11.32;3.17;;;;;;;49.68;8.84;100008.00;4998067;28;20533;-70
2023/09/29 10:40:33;;;;;;;14.13;3.40;;;;;;;50.22;8.34;99999.63;4998348;28;20472;-70
2023/09/29 10:43:02;;;;;;;11.75;3.47;;;;;;;48.69;9.20;100010.22;4997455;28;20049;-70
2023/09/29 10:45:36;;;;;;;15.27;3.53;;;;;;;48.23;9.33;100007.34;5014062;28;20049;-70
2023/09/29 10:48:09;;;;;;;9.55;3.28;;;;;;;48.13;9.48;99999.72;4998300;28;20091;-70
2023/09/29 10:50:41;;;;;;;11.90;3.70;;;;;;;47.32;9.57;99996.59;4997312;28;20060;-70
2023/09/29 10:53:07;;;;;;;8.35;3.13;;;;;;;46.85;10.07;99991.06;5013897;28;20072;-70
2023/09/29 10:55:41;;;;;;;9.23;3.17;;;;;;;46.50;10.55;99992.78;4997303;28;20056;-70
2023/09/29 10:58:11;;;;;;;10.88;3.03;;;;;;;46.49;10.40;99989.16;5013136;28;20045;-70
2023/09/29 11:00:43;;;;;;;8.40;3.23;;;;;;;45.86;10.20;99983.69;5019815;28;20138;-70
2023/09/29 11:03:13;;;;;;;14.38;2.97;;;;;;;46.30;10.02;99971.69;5032918;28;20513;-70
2023/09/29 11:06:03;;;;;;;14.60;3.65;;;;;;;46.10;9.97;99974.69;5032847;28;20064;-70
2023/09/29 11:08:34;;;;;;;7.63;2.97;;;;;;;45.79;10.26;99968.78;5016428;28;20194;-70
2023/09/29 11:11:05;;;;;;;7.47;2.88;;;;;;;45.25;10.60;99974.06;5000360;28;20047;-70
2023/09/29 11:13:31;;;;;;;10.30;3.38;;;;;;;44.83;11.02;99963.03;5016707;28;20348;-70
2023/09/29 11:15:59;;;;;;;8.98;3.15;;;;;;;44.81;11.14;99971.00;5000315;28;20073;-71
2023/09/29 11:18:30;;;;;;;7.80;2.85;;;;;;;43.45;11.71;99958.88;5000101;28;20053;-70
2023/09/29 11:20:59;;;;;;;12.30;2.72;;;;;;;43.26;11.92;99950.50;5049657;28;20136;-71
2023/09/29 11:23:43;;;;;;;7.97;2.72;;;;;;;42.84;12.01;99955.13;5000581;28;20144;-70
2023/09/29 11:26:12;;;;;;;8.82;2.80;;;;;;;42.44;12.29;99952.53;5001828;28;20044;-70